sensor_id;sensor_type;location;lat;lon;timestamp;temperature;humidity
14031;DHT22;7090;49.436;8.490;2022-10-16T00:01:22;16.70;99.90
14031;DHT22;7090;49.436;8.490;2022-10-16T00:03:48;16.70;99.90
14031;DHT22;7090;49.436;8.490;2022-10-16T00:06:16;16.70;99.90
14031;DHT22;7090;49.436;8.490;2022-10-16T00:08:41;16.70;99.90
14031;DHT22;7090;49.436;8.490;2022-10-16T00:11:21;16.60;99.90
14031;DHT22;7090;49.436;8.490;2022-10-16T00:13:48;16.60;99.90
14031;DHT22;7090;49.436;8.490;2022-10-16T00:16:14;16.60;99.90
14031;DHT22;7090;49.436;8.490;2022-10-16T00:18:40;16.50;99.90
14031;DHT22;7090;49.436;8.490;2022-10-16T00:21:09;16.40;99.90
14031;DHT22;7090;49.436;8.490;2022-10-16T00:23:36;16.40;99.90
14031;DHT22;7090;49.436;8.490;2022-10-16T00:26:06;16.50;99.90
14031;DHT22;7090;49.436;8.490;2022-10-16T00:28:33;16.50;99.90
14031;DHT22;7090;49.436;8.490;2022-10-16T00:31:03;16.50;99.90
14031;DHT22;7090;49.436;8.490;2022-10-16T00:33:29;16.50;99.90
14031;DHT22;7090;49.436;8.490;2022-10-16T00:35:58;16.20;99.90
14031;DHT22;7090;49.436;8.490;2022-10-16T00:38:24;16.30;99.90
14031;DHT22;7090;49.436;8.490;2022-10-16T00:40:49;16.50;99.90
14031;DHT22;7090;49.436;8.490;2022-10-16T00:46:03;16.60;99.90
14031;DHT22;7090;49.436;8.490;2022-10-16T00:48:30;16.60;99.90
14031;DHT22;7090;49.436;8.490;2022-10-16T00:50:56;16.60;99.90
14031;DHT22;7090;49.436;8.490;2022-10-16T00:53:24;16.60;99.90
14031;DHT22;7090;49.436;8.490;2022-10-16T00:55:51;16.50;99.90
14031;DHT22;7090;49.436;8.490;2022-10-16T00:58:17;16.60;99.90
14031;DHT22;7090;49.436;8.490;2022-10-16T01:00:42;16.60;99.90
14031;DHT22;7090;49.436;8.490;2022-10-16T01:03:32;16.50;99.90
14031;DHT22;7090;49.436;8.490;2022-10-16T01:06:18;16.40;99.90
14031;DHT22;7090;49.436;8.490;2022-10-16T01:14:32;16.60;99.90
14031;DHT22;7090;49.436;8.490;2022-10-16T01:17:22;16.40;99.90
14031;DHT22;7090;49.436;8.490;2022-10-16T01:22:59;16.50;99.90
14031;DHT22;7090;49.436;8.490;2022-10-16T01:28:24;16.60;99.90
14031;DHT22;7090;49.436;8.490;2022-10-16T01:30:53;16.60;99.90
14031;DHT22;7090;49.436;8.490;2022-10-16T01:33:29;16.60;99.90
14031;DHT22;7090;49.436;8.490;2022-10-16T01:35:59;16.60;99.90
14031;DHT22;7090;49.436;8.490;2022-10-16T01:38:34;16.60;99.90
14031;DHT22;7090;49.436;8.490;2022-10-16T01:41:18;16.60;99.90
14031;DHT22;7090;49.436;8.490;2022-10-16T01:43:56;16.60;99.90
14031;DHT22;7090;49.436;8.490;2022-10-16T01:46:24;16.50;99.90
14031;DHT22;7090;49.436;8.490;2022-10-16T01:48:52;16.50;99.90
14031;DHT22;7090;49.436;8.490;2022-10-16T01:51:19;16.60;99.90
14031;DHT22;7090;49.436;8.490;2022-10-16T01:53:53;16.60;99.90
14031;DHT22;7090;49.436;8.490;2022-10-16T01:56:20;16.70;99.90
14031;DHT22;7090;49.436;8.490;2022-10-16T02:01:30;16.60;99.90
14031;DHT22;7090;49.436;8.490;2022-10-16T02:03:59;16.70;99.90
14031;DHT22;7090;49.436;8.490;2022-10-16T02:06:27;16.60;99.90
14031;DHT22;7090;49.436;8.490;2022-10-16T02:08:53;16.60;99.90
14031;DHT22;7090;49.436;8.490;2022-10-16T02:11:19;16.70;99.90
14031;DHT22;7090;49.436;8.490;2022-10-16T02:13:53;16.50;99.90
14031;DHT22;7090;49.436;8.490;2022-10-16T02:16:20;16.50;99.90
14031;DHT22;7090;49.436;8.490;2022-10-16T02:18:46;16.50;99.90
14031;DHT22;7090;49.436;8.490;2022-10-16T02:21:22;16.40;99.90
14031;DHT22;7090;49.436;8.490;2022-10-16T02:26:27;16.50;99.90
14031;DHT22;7090;49.436;8.490;2022-10-16T02:28:59;16.50;99.90
14031;DHT22;7090;49.436;8.490;2022-10-16T02:31:28;16.50;99.90
14031;DHT22;7090;49.436;8.490;2022-10-16T02:33:58;16.40;99.90
14031;DHT22;7090;49.436;8.490;2022-10-16T02:36:25;16.50;99.90
14031;DHT22;7090;49.436;8.490;2022-10-16T02:38:52;16.50;99.90
14031;DHT22;7090;49.436;8.490;2022-10-16T02:41:21;16.40;99.90
14031;DHT22;7090;49.436;8.490;2022-10-16T02:43:46;16.50;99.90
14031;DHT22;7090;49.436;8.490;2022-10-16T02:46:12;16.40;99.90
14031;DHT22;7090;49.436;8.490;2022-10-16T02:48:37;16.40;99.90
14031;DHT22;7090;49.436;8.490;2022-10-16T02:51:04;16.40;99.90
14031;DHT22;7090;49.436;8.490;2022-10-16T02:53:30;16.40;99.90
14031;DHT22;7090;49.436;8.490;2022-10-16T02:55:56;16.30;99.90
14031;DHT22;7090;49.436;8.490;2022-10-16T02:58:22;16.30;99.90
14031;DHT22;7090;49.436;8.490;2022-10-16T03:00:47;16.30;99.90
14031;DHT22;7090;49.436;8.490;2022-10-16T03:03:13;16.20;99.90
14031;DHT22;7090;49.436;8.490;2022-10-16T03:05:38;16.30;99.90
14031;DHT22;7090;49.436;8.490;2022-10-16T03:08:04;16.30;99.90
14031;DHT22;7090;49.436;8.490;2022-10-16T03:10:30;16.30;99.90
14031;DHT22;7090;49.436;8.490;2022-10-16T03:12:55;16.30;99.90
14031;DHT22;7090;49.436;8.490;2022-10-16T03:15:21;16.20;99.90
14031;DHT22;7090;49.436;8.490;2022-10-16T03:17:47;16.20;99.90
14031;DHT22;7090;49.436;8.490;2022-10-16T03:20:12;16.20;99.90
14031;DHT22;7090;49.436;8.490;2022-10-16T03:22:38;16.20;99.90
14031;DHT22;7090;49.436;8.490;2022-10-16T03:25:04;16.20;99.90
14031;DHT22;7090;49.436;8.490;2022-10-16T03:27:29;16.20;99.90
14031;DHT22;7090;49.436;8.490;2022-10-16T03:29:55;16.20;99.90
14031;DHT22;7090;49.436;8.490;2022-10-16T03:32:20;16.20;99.90
14031;DHT22;7090;49.436;8.490;2022-10-16T03:34:47;16.20;99.90
14031;DHT22;7090;49.436;8.490;2022-10-16T03:37:12;16.10;99.90
14031;DHT22;7090;49.436;8.490;2022-10-16T03:39:38;16.10;99.90
14031;DHT22;7090;49.436;8.490;2022-10-16T03:42:03;16.10;99.90
14031;DHT22;7090;49.436;8.490;2022-10-16T03:44:30;16.10;99.90
14031;DHT22;7090;49.436;8.490;2022-10-16T03:46:55;16.10;99.90
14031;DHT22;7090;49.436;8.490;2022-10-16T03:49:21;16.10;99.90
14031;DHT22;7090;49.436;8.490;2022-10-16T03:51:46;16.10;99.90
14031;DHT22;7090;49.436;8.490;2022-10-16T03:54:12;16.00;99.90
14031;DHT22;7090;49.436;8.490;2022-10-16T03:56:38;16.00;99.90
14031;DHT22;7090;49.436;8.490;2022-10-16T03:59:04;16.00;99.90
14031;DHT22;7090;49.436;8.490;2022-10-16T04:01:30;16.00;99.90
14031;DHT22;7090;49.436;8.490;2022-10-16T04:03:55;16.00;99.90
14031;DHT22;7090;49.436;8.490;2022-10-16T04:06:21;16.00;99.90
14031;DHT22;7090;49.436;8.490;2022-10-16T04:08:47;16.00;99.90
14031;DHT22;7090;49.436;8.490;2022-10-16T04:11:13;16.00;99.90
14031;DHT22;7090;49.436;8.490;2022-10-16T04:13:39;16.00;99.90
14031;DHT22;7090;49.436;8.490;2022-10-16T04:16:05;16.00;99.90
14031;DHT22;7090;49.436;8.490;2022-10-16T04:18:30;16.00;99.90
14031;DHT22;7090;49.436;8.490;2022-10-16T04:20:56;16.00;99.90
14031;DHT22;7090;49.436;8.490;2022-10-16T04:23:21;16.00;99.90
14031;DHT22;7090;49.436;8.490;2022-10-16T04:25:48;16.00;99.90
14031;DHT22;7090;49.436;8.490;2022-10-16T04:28:14;16.10;99.90
14031;DHT22;7090;49.436;8.490;2022-10-16T04:30:40;16.10;99.90
14031;DHT22;7090;49.436;8.490;2022-10-16T04:33:05;16.20;99.90
14031;DHT22;7090;49.436;8.490;2022-10-16T04:35:31;16.10;99.90
14031;DHT22;7090;49.436;8.490;2022-10-16T04:37:59;16.10;99.90
14031;DHT22;7090;49.436;8.490;2022-10-16T04:40:25;16.00;99.90
14031;DHT22;7090;49.436;8.490;2022-10-16T04:42:51;16.00;99.90
14031;DHT22;7090;49.436;8.490;2022-10-16T04:45:16;16.10;99.90
14031;DHT22;7090;49.436;8.490;2022-10-16T04:47:42;16.10;99.90
14031;DHT22;7090;49.436;8.490;2022-10-16T04:50:08;16.10;99.90
14031;DHT22;7090;49.436;8.490;2022-10-16T04:52:33;16.10;99.90
14031;DHT22;7090;49.436;8.490;2022-10-16T04:54:59;16.00;99.90
14031;DHT22;7090;49.436;8.490;2022-10-16T04:57:28;16.00;99.90
14031;DHT22;7090;49.436;8.490;2022-10-16T04:59:53;16.00;99.90
14031;DHT22;7090;49.436;8.490;2022-10-16T05:02:19;15.90;99.90
14031;DHT22;7090;49.436;8.490;2022-10-16T05:04:44;15.90;99.90
14031;DHT22;7090;49.436;8.490;2022-10-16T05:07:10;15.90;99.90
14031;DHT22;7090;49.436;8.490;2022-10-16T05:09:36;16.00;99.90
14031;DHT22;7090;49.436;8.490;2022-10-16T05:12:01;16.00;99.90
14031;DHT22;7090;49.436;8.490;2022-10-16T05:14:29;16.00;99.90
14031;DHT22;7090;49.436;8.490;2022-10-16T05:16:54;16.00;99.90
14031;DHT22;7090;49.436;8.490;2022-10-16T05:19:20;16.00;99.90
14031;DHT22;7090;49.436;8.490;2022-10-16T05:21:45;16.00;99.90
14031;DHT22;7090;49.436;8.490;2022-10-16T05:24:11;16.00;99.90
14031;DHT22;7090;49.436;8.490;2022-10-16T05:26:36;16.00;99.90
14031;DHT22;7090;49.436;8.490;2022-10-16T05:29:02;16.10;99.90
14031;DHT22;7090;49.436;8.490;2022-10-16T05:31:28;16.10;99.90
14031;DHT22;7090;49.436;8.490;2022-10-16T05:33:58;16.10;99.90
14031;DHT22;7090;49.436;8.490;2022-10-16T05:36:24;16.10;99.90
14031;DHT22;7090;49.436;8.490;2022-10-16T05:38:51;16.10;99.90
14031;DHT22;7090;49.436;8.490;2022-10-16T05:41:16;16.10;99.90
14031;DHT22;7090;49.436;8.490;2022-10-16T05:43:47;16.10;99.90
14031;DHT22;7090;49.436;8.490;2022-10-16T05:46:13;16.10;99.90
14031;DHT22;7090;49.436;8.490;2022-10-16T05:48:38;16.10;99.90
14031;DHT22;7090;49.436;8.490;2022-10-16T05:51:06;16.20;99.90
14031;DHT22;7090;49.436;8.490;2022-10-16T05:53:36;16.30;99.90
14031;DHT22;7090;49.436;8.490;2022-10-16T05:56:03;16.30;99.90
14031;DHT22;7090;49.436;8.490;2022-10-16T05:58:31;16.20;99.90
14031;DHT22;7090;49.436;8.490;2022-10-16T06:01:00;16.20;99.90
14031;DHT22;7090;49.436;8.490;2022-10-16T06:03:26;16.20;99.90
14031;DHT22;7090;49.436;8.490;2022-10-16T06:05:52;16.20;99.90
14031;DHT22;7090;49.436;8.490;2022-10-16T06:08:19;16.20;99.90
14031;DHT22;7090;49.436;8.490;2022-10-16T06:10:46;16.10;99.90
14031;DHT22;7090;49.436;8.490;2022-10-16T06:13:13;16.10;99.90
14031;DHT22;7090;49.436;8.490;2022-10-16T06:15:40;16.10;99.90
14031;DHT22;7090;49.436;8.490;2022-10-16T06:18:08;16.10;99.90
14031;DHT22;7090;49.436;8.490;2022-10-16T06:20:34;16.10;99.90
14031;DHT22;7090;49.436;8.490;2022-10-16T06:22:59;16.10;99.90
14031;DHT22;7090;49.436;8.490;2022-10-16T06:25:25;16.20;99.90
14031;DHT22;7090;49.436;8.490;2022-10-16T06:27:51;16.20;99.90
14031;DHT22;7090;49.436;8.490;2022-10-16T06:30:16;16.20;99.90
14031;DHT22;7090;49.436;8.490;2022-10-16T06:32:42;16.20;99.90
14031;DHT22;7090;49.436;8.490;2022-10-16T06:35:07;16.10;99.90
14031;DHT22;7090;49.436;8.490;2022-10-16T06:37:33;16.20;99.90
14031;DHT22;7090;49.436;8.490;2022-10-16T06:39:58;16.10;99.90
14031;DHT22;7090;49.436;8.490;2022-10-16T06:42:25;16.20;99.90
14031;DHT22;7090;49.436;8.490;2022-10-16T06:44:51;16.20;99.90
14031;DHT22;7090;49.436;8.490;2022-10-16T06:47:16;16.20;99.90
14031;DHT22;7090;49.436;8.490;2022-10-16T06:49:42;16.20;99.90
14031;DHT22;7090;49.436;8.490;2022-10-16T06:52:08;16.20;99.90
14031;DHT22;7090;49.436;8.490;2022-10-16T06:54:33;16.20;99.90
14031;DHT22;7090;49.436;8.490;2022-10-16T06:56:59;16.20;99.90
14031;DHT22;7090;49.436;8.490;2022-10-16T06:59:25;16.20;99.90
14031;DHT22;7090;49.436;8.490;2022-10-16T07:01:50;16.30;99.90
14031;DHT22;7090;49.436;8.490;2022-10-16T07:04:16;16.30;99.90
14031;DHT22;7090;49.436;8.490;2022-10-16T07:06:42;16.30;99.90
14031;DHT22;7090;49.436;8.490;2022-10-16T07:09:09;16.40;99.90
14031;DHT22;7090;49.436;8.490;2022-10-16T07:11:37;16.40;99.90
14031;DHT22;7090;49.436;8.490;2022-10-16T07:14:04;16.40;99.90
14031;DHT22;7090;49.436;8.490;2022-10-16T07:16:31;16.40;99.90
14031;DHT22;7090;49.436;8.490;2022-10-16T07:18:58;16.50;99.90
14031;DHT22;7090;49.436;8.490;2022-10-16T07:21:26;16.50;99.90
14031;DHT22;7090;49.436;8.490;2022-10-16T07:23:54;16.50;99.90
14031;DHT22;7090;49.436;8.490;2022-10-16T07:26:20;16.60;99.90
14031;DHT22;7090;49.436;8.490;2022-10-16T07:28:46;16.60;99.90
14031;DHT22;7090;49.436;8.490;2022-10-16T07:31:13;16.60;99.90
14031;DHT22;7090;49.436;8.490;2022-10-16T07:33:41;16.60;99.90
14031;DHT22;7090;49.436;8.490;2022-10-16T07:36:11;16.70;99.90
14031;DHT22;7090;49.436;8.490;2022-10-16T07:38:37;16.60;99.90
14031;DHT22;7090;49.436;8.490;2022-10-16T07:41:06;16.70;99.90
14031;DHT22;7090;49.436;8.490;2022-10-16T07:43:32;16.70;99.90
14031;DHT22;7090;49.436;8.490;2022-10-16T07:45:58;16.80;99.90
14031;DHT22;7090;49.436;8.490;2022-10-16T07:48:26;16.80;99.90
14031;DHT22;7090;49.436;8.490;2022-10-16T07:50:52;16.90;99.90
14031;DHT22;7090;49.436;8.490;2022-10-16T07:53:17;17.00;99.90
14031;DHT22;7090;49.436;8.490;2022-10-16T07:55:43;17.10;99.90
14031;DHT22;7090;49.436;8.490;2022-10-16T07:58:09;17.10;99.90
14031;DHT22;7090;49.436;8.490;2022-10-16T08:00:36;17.20;99.90
14031;DHT22;7090;49.436;8.490;2022-10-16T08:03:02;17.20;99.90
14031;DHT22;7090;49.436;8.490;2022-10-16T08:05:28;17.10;99.90
14031;DHT22;7090;49.436;8.490;2022-10-16T08:07:55;17.30;99.90
14031;DHT22;7090;49.436;8.490;2022-10-16T08:10:22;17.20;99.90
14031;DHT22;7090;49.436;8.490;2022-10-16T08:12:48;17.20;99.90
14031;DHT22;7090;49.436;8.490;2022-10-16T08:15:14;17.20;99.90
14031;DHT22;7090;49.436;8.490;2022-10-16T08:17:39;17.20;99.90
14031;DHT22;7090;49.436;8.490;2022-10-16T08:20:05;17.20;99.90
14031;DHT22;7090;49.436;8.490;2022-10-16T08:22:31;17.10;99.90
14031;DHT22;7090;49.436;8.490;2022-10-16T08:24:57;17.20;99.90
14031;DHT22;7090;49.436;8.490;2022-10-16T08:27:22;17.20;99.90
14031;DHT22;7090;49.436;8.490;2022-10-16T08:29:51;17.20;99.90
14031;DHT22;7090;49.436;8.490;2022-10-16T08:32:16;17.20;99.90
14031;DHT22;7090;49.436;8.490;2022-10-16T08:34:42;17.20;99.90
14031;DHT22;7090;49.436;8.490;2022-10-16T08:37:07;17.30;99.90
14031;DHT22;7090;49.436;8.490;2022-10-16T08:39:36;17.30;99.90
14031;DHT22;7090;49.436;8.490;2022-10-16T08:48:03;17.80;99.90
14031;DHT22;7090;49.436;8.490;2022-10-16T08:50:32;18.00;99.90
14031;DHT22;7090;49.436;8.490;2022-10-16T08:53:04;18.10;99.90
14031;DHT22;7090;49.436;8.490;2022-10-16T08:58:18;18.30;99.90
14031;DHT22;7090;49.436;8.490;2022-10-16T09:00:52;18.20;99.90
14031;DHT22;7090;49.436;8.490;2022-10-16T09:11:46;17.90;99.90
14031;DHT22;7090;49.436;8.490;2022-10-16T09:14:53;18.10;99.90
14031;DHT22;7090;49.436;8.490;2022-10-16T09:17:39;18.60;99.90
14031;DHT22;7090;49.436;8.490;2022-10-16T09:22:35;19.30;99.90
14031;DHT22;7090;49.436;8.490;2022-10-16T09:25:11;19.70;99.90
14031;DHT22;7090;49.436;8.490;2022-10-16T09:27:37;19.90;99.90
14031;DHT22;7090;49.436;8.490;2022-10-16T09:30:13;20.10;99.90
14031;DHT22;7090;49.436;8.490;2022-10-16T09:32:40;20.20;99.90
14031;DHT22;7090;49.436;8.490;2022-10-16T09:35:15;20.30;99.90
14031;DHT22;7090;49.436;8.490;2022-10-16T09:37:44;20.50;99.90
14031;DHT22;7090;49.436;8.490;2022-10-16T09:40:32;20.50;99.90
14031;DHT22;7090;49.436;8.490;2022-10-16T09:43:25;20.20;99.90
14031;DHT22;7090;49.436;8.490;2022-10-16T09:48:44;20.00;99.90
14031;DHT22;7090;49.436;8.490;2022-10-16T09:51:21;20.30;99.90
14031;DHT22;7090;49.436;8.490;2022-10-16T09:53:48;20.40;99.90
14031;DHT22;7090;49.436;8.490;2022-10-16T09:56:30;20.20;99.90
14031;DHT22;7090;49.436;8.490;2022-10-16T09:59:00;20.40;99.90
14031;DHT22;7090;49.436;8.490;2022-10-16T10:01:50;20.20;99.90
14031;DHT22;7090;49.436;8.490;2022-10-16T10:04:19;20.20;99.90
14031;DHT22;7090;49.436;8.490;2022-10-16T10:06:47;20.20;99.90
14031;DHT22;7090;49.436;8.490;2022-10-16T10:09:37;20.30;99.90
14031;DHT22;7090;49.436;8.490;2022-10-16T10:12:04;20.10;99.90
14031;DHT22;7090;49.436;8.490;2022-10-16T10:14:31;20.00;99.90
14031;DHT22;7090;49.436;8.490;2022-10-16T10:17:19;20.00;99.90
14031;DHT22;7090;49.436;8.490;2022-10-16T10:19:49;19.90;99.90
14031;DHT22;7090;49.436;8.490;2022-10-16T10:30:50;20.20;99.90
14031;DHT22;7090;49.436;8.490;2022-10-16T10:41:51;21.90;99.90
14031;DHT22;7090;49.436;8.490;2022-10-16T10:49:57;23.20;99.90
14031;DHT22;7090;49.436;8.490;2022-10-16T10:52:34;23.50;1.00
14031;DHT22;7090;49.436;8.490;2022-10-16T10:55:12;23.60;1.00
14031;DHT22;7090;49.436;8.490;2022-10-16T11:06:30;23.10;1.00
14031;DHT22;7090;49.436;8.490;2022-10-16T11:09:02;22.80;1.00
14031;DHT22;7090;49.436;8.490;2022-10-16T11:11:38;22.70;1.00
14031;DHT22;7090;49.436;8.490;2022-10-16T11:14:19;22.60;1.00
14031;DHT22;7090;49.436;8.490;2022-10-16T11:16:52;22.70;1.00
14031;DHT22;7090;49.436;8.490;2022-10-16T11:30:19;22.60;1.00
14031;DHT22;7090;49.436;8.490;2022-10-16T11:35:53;22.60;1.00
14031;DHT22;7090;49.436;8.490;2022-10-16T11:41:24;22.90;1.00
14031;DHT22;7090;49.436;8.490;2022-10-16T11:46:59;23.10;1.00
14031;DHT22;7090;49.436;8.490;2022-10-16T11:49:31;23.10;1.00
14031;DHT22;7090;49.436;8.490;2022-10-16T11:57:16;22.50;1.00
14031;DHT22;7090;49.436;8.490;2022-10-16T11:59:47;23.00;1.00
14031;DHT22;7090;49.436;8.490;2022-10-16T12:02:34;22.80;1.00
14031;DHT22;7090;49.436;8.490;2022-10-16T12:10:30;22.90;1.00
14031;DHT22;7090;49.436;8.490;2022-10-16T12:13:03;22.90;1.00
14031;DHT22;7090;49.436;8.490;2022-10-16T12:15:33;22.70;1.00
14031;DHT22;7090;49.436;8.490;2022-10-16T12:18:00;22.30;1.00
14031;DHT22;7090;49.436;8.490;2022-10-16T12:20:33;22.20;1.00
14031;DHT22;7090;49.436;8.490;2022-10-16T12:23:04;22.30;1.00
14031;DHT22;7090;49.436;8.490;2022-10-16T12:25:35;22.30;1.00
14031;DHT22;7090;49.436;8.490;2022-10-16T12:28:19;22.40;1.00
14031;DHT22;7090;49.436;8.490;2022-10-16T12:31:00;22.30;1.00
14031;DHT22;7090;49.436;8.490;2022-10-16T12:33:27;21.90;1.00
14031;DHT22;7090;49.436;8.490;2022-10-16T12:35:53;21.70;1.00
14031;DHT22;7090;49.436;8.490;2022-10-16T12:38:47;21.70;1.00
14031;DHT22;7090;49.436;8.490;2022-10-16T12:41:28;21.50;1.00
14031;DHT22;7090;49.436;8.490;2022-10-16T12:43:55;21.70;1.00
14031;DHT22;7090;49.436;8.490;2022-10-16T12:46:35;22.00;1.00
14031;DHT22;7090;49.436;8.490;2022-10-16T12:51:41;22.10;1.00
14031;DHT22;7090;49.436;8.490;2022-10-16T12:54:19;22.20;1.00
14031;DHT22;7090;49.436;8.490;2022-10-16T13:13:17;22.30;1.00
14031;DHT22;7090;49.436;8.490;2022-10-16T13:18:27;22.20;1.00
14031;DHT22;7090;49.436;8.490;2022-10-16T13:21:31;22.00;1.00
14031;DHT22;7090;49.436;8.490;2022-10-16T13:24:23;21.80;1.00
14031;DHT22;7090;49.436;8.490;2022-10-16T13:27:07;21.60;1.00
14031;DHT22;7090;49.436;8.490;2022-10-16T13:29:35;21.60;1.00
14031;DHT22;7090;49.436;8.490;2022-10-16T13:32:06;21.50;1.00
14031;DHT22;7090;49.436;8.490;2022-10-16T13:34:32;21.40;1.00
14031;DHT22;7090;49.436;8.490;2022-10-16T13:36:58;21.40;1.00
14031;DHT22;7090;49.436;8.490;2022-10-16T13:42:12;21.30;1.00
14031;DHT22;7090;49.436;8.490;2022-10-16T13:44:49;21.30;1.00
14031;DHT22;7090;49.436;8.490;2022-10-16T13:50:02;21.00;1.00
14031;DHT22;7090;49.436;8.490;2022-10-16T13:52:28;21.00;47.60
14031;DHT22;7090;49.436;8.490;2022-10-16T13:54:54;21.10;1.00
14031;DHT22;7090;49.436;8.490;2022-10-16T13:57:23;21.30;1.00
14031;DHT22;7090;49.436;8.490;2022-10-16T13:59:50;21.10;1.00
14031;DHT22;7090;49.436;8.490;2022-10-16T14:04:44;21.30;1.00
14031;DHT22;7090;49.436;8.490;2022-10-16T14:07:14;21.20;1.00
14031;DHT22;7090;49.436;8.490;2022-10-16T14:09:41;21.10;1.00
14031;DHT22;7090;49.436;8.490;2022-10-16T14:12:11;21.00;1.00
14031;DHT22;7090;49.436;8.490;2022-10-16T14:14:45;21.00;1.00
14031;DHT22;7090;49.436;8.490;2022-10-16T14:17:16;21.00;1.00
14031;DHT22;7090;49.436;8.490;2022-10-16T14:19:47;20.90;1.00
14031;DHT22;7090;49.436;8.490;2022-10-16T14:22:32;20.90;1.00
14031;DHT22;7090;49.436;8.490;2022-10-16T14:24:58;20.90;1.00
14031;DHT22;7090;49.436;8.490;2022-10-16T14:27:33;20.90;1.00
14031;DHT22;7090;49.436;8.490;2022-10-16T14:30:15;20.80;1.00
14031;DHT22;7090;49.436;8.490;2022-10-16T14:32:59;20.80;1.00
14031;DHT22;7090;49.436;8.490;2022-10-16T14:37:56;20.60;99.90
14031;DHT22;7090;49.436;8.490;2022-10-16T14:40:31;20.60;99.90
14031;DHT22;7090;49.436;8.490;2022-10-16T14:42:57;20.50;99.90
14031;DHT22;7090;49.436;8.490;2022-10-16T14:45:30;20.50;99.90
14031;DHT22;7090;49.436;8.490;2022-10-16T14:47:57;20.50;99.90
14031;DHT22;7090;49.436;8.490;2022-10-16T14:50:24;20.50;99.90
14031;DHT22;7090;49.436;8.490;2022-10-16T14:52:50;20.50;99.90
14031;DHT22;7090;49.436;8.490;2022-10-16T14:55:16;20.60;99.90
14031;DHT22;7090;49.436;8.490;2022-10-16T14:57:43;20.70;11.10
14031;DHT22;7090;49.436;8.490;2022-10-16T15:00:23;20.70;1.00
14031;DHT22;7090;49.436;8.490;2022-10-16T15:02:50;20.80;1.00
14031;DHT22;7090;49.436;8.490;2022-10-16T15:07:42;21.10;1.00
14031;DHT22;7090;49.436;8.490;2022-10-16T15:10:07;21.20;1.00
14031;DHT22;7090;49.436;8.490;2022-10-16T15:12:33;21.40;1.00
14031;DHT22;7090;49.436;8.490;2022-10-16T15:14:59;21.50;1.00
14031;DHT22;7090;49.436;8.490;2022-10-16T15:17:25;21.60;1.00
14031;DHT22;7090;49.436;8.490;2022-10-16T15:19:50;21.60;1.00
14031;DHT22;7090;49.436;8.490;2022-10-16T15:22:17;21.60;1.00
14031;DHT22;7090;49.436;8.490;2022-10-16T15:24:43;21.60;1.00
14031;DHT22;7090;49.436;8.490;2022-10-16T15:27:08;21.50;1.00
14031;DHT22;7090;49.436;8.490;2022-10-16T15:29:34;21.40;1.00
14031;DHT22;7090;49.436;8.490;2022-10-16T15:31:59;21.30;1.00
14031;DHT22;7090;49.436;8.490;2022-10-16T15:34:25;21.20;1.00
14031;DHT22;7090;49.436;8.490;2022-10-16T15:36:51;21.10;1.00
14031;DHT22;7090;49.436;8.490;2022-10-16T15:39:19;21.10;1.00
14031;DHT22;7090;49.436;8.490;2022-10-16T15:41:46;21.00;1.00
14031;DHT22;7090;49.436;8.490;2022-10-16T15:44:19;21.00;1.00
14031;DHT22;7090;49.436;8.490;2022-10-16T15:46:46;21.00;1.00
14031;DHT22;7090;49.436;8.490;2022-10-16T15:49:12;21.20;1.00
14031;DHT22;7090;49.436;8.490;2022-10-16T15:51:38;21.40;1.00
14031;DHT22;7090;49.436;8.490;2022-10-16T15:54:04;21.70;1.00
14031;DHT22;7090;49.436;8.490;2022-10-16T15:56:30;21.60;1.00
14031;DHT22;7090;49.436;8.490;2022-10-16T15:59:01;21.90;1.00
14031;DHT22;7090;49.436;8.490;2022-10-16T16:01:27;21.80;1.00
14031;DHT22;7090;49.436;8.490;2022-10-16T16:03:55;21.60;1.00
14031;DHT22;7090;49.436;8.490;2022-10-16T16:06:21;21.50;1.00
14031;DHT22;7090;49.436;8.490;2022-10-16T16:08:48;21.20;1.00
14031;DHT22;7090;49.436;8.490;2022-10-16T16:11:15;21.20;1.00
14031;DHT22;7090;49.436;8.490;2022-10-16T16:13:40;21.10;1.00
14031;DHT22;7090;49.436;8.490;2022-10-16T16:16:11;21.00;1.00
14031;DHT22;7090;49.436;8.490;2022-10-16T16:18:37;20.90;1.00
14031;DHT22;7090;49.436;8.490;2022-10-16T16:21:04;20.70;1.00
14031;DHT22;7090;49.436;8.490;2022-10-16T16:23:30;20.50;99.90
14031;DHT22;7090;49.436;8.490;2022-10-16T16:28:32;20.30;99.90
14031;DHT22;7090;49.436;8.490;2022-10-16T16:30:57;20.10;99.90
14031;DHT22;7090;49.436;8.490;2022-10-16T16:33:23;20.00;99.90
14031;DHT22;7090;49.436;8.490;2022-10-16T16:35:49;19.90;99.90
14031;DHT22;7090;49.436;8.490;2022-10-16T16:38:14;19.80;99.90
14031;DHT22;7090;49.436;8.490;2022-10-16T16:40:40;19.80;99.90
14031;DHT22;7090;49.436;8.490;2022-10-16T16:43:06;19.70;99.90
14031;DHT22;7090;49.436;8.490;2022-10-16T16:45:35;19.70;99.90
14031;DHT22;7090;49.436;8.490;2022-10-16T16:48:01;19.60;99.90
14031;DHT22;7090;49.436;8.490;2022-10-16T16:50:26;19.50;99.90
14031;DHT22;7090;49.436;8.490;2022-10-16T16:52:52;19.50;99.90
14031;DHT22;7090;49.436;8.490;2022-10-16T16:55:17;19.50;99.90
14031;DHT22;7090;49.436;8.490;2022-10-16T16:57:43;19.40;99.90
14031;DHT22;7090;49.436;8.490;2022-10-16T17:00:09;19.30;99.90
14031;DHT22;7090;49.436;8.490;2022-10-16T17:02:34;19.20;99.90
14031;DHT22;7090;49.436;8.490;2022-10-16T17:05:00;19.00;99.90
14031;DHT22;7090;49.436;8.490;2022-10-16T17:07:26;19.00;99.90
14031;DHT22;7090;49.436;8.490;2022-10-16T17:09:52;18.90;99.90
14031;DHT22;7090;49.436;8.490;2022-10-16T17:12:18;18.80;99.90
14031;DHT22;7090;49.436;8.490;2022-10-16T17:14:43;18.70;99.90
14031;DHT22;7090;49.436;8.490;2022-10-16T17:17:09;18.60;99.90
14031;DHT22;7090;49.436;8.490;2022-10-16T17:19:34;18.40;99.90
14031;DHT22;7090;49.436;8.490;2022-10-16T17:22:00;18.30;99.90
14031;DHT22;7090;49.436;8.490;2022-10-16T17:24:25;18.20;99.90
14031;DHT22;7090;49.436;8.490;2022-10-16T17:26:51;18.10;99.90
14031;DHT22;7090;49.436;8.490;2022-10-16T17:29:17;18.00;99.90
14031;DHT22;7090;49.436;8.490;2022-10-16T17:31:44;17.90;99.90
14031;DHT22;7090;49.436;8.490;2022-10-16T17:34:10;17.90;99.90
14031;DHT22;7090;49.436;8.490;2022-10-16T17:36:38;17.80;99.90
14031;DHT22;7090;49.436;8.490;2022-10-16T17:39:09;17.70;99.90
14031;DHT22;7090;49.436;8.490;2022-10-16T17:41:36;17.60;99.90
14031;DHT22;7090;49.436;8.490;2022-10-16T17:44:03;17.60;99.90
14031;DHT22;7090;49.436;8.490;2022-10-16T17:46:29;17.50;99.90
14031;DHT22;7090;49.436;8.490;2022-10-16T17:48:55;17.50;99.90
14031;DHT22;7090;49.436;8.490;2022-10-16T17:51:23;17.40;99.90
14031;DHT22;7090;49.436;8.490;2022-10-16T17:53:51;17.30;99.90
14031;DHT22;7090;49.436;8.490;2022-10-16T17:56:17;17.30;99.90
14031;DHT22;7090;49.436;8.490;2022-10-16T17:58:42;17.30;99.90
14031;DHT22;7090;49.436;8.490;2022-10-16T18:01:20;17.20;99.90
14031;DHT22;7090;49.436;8.490;2022-10-16T18:03:57;17.20;99.90
14031;DHT22;7090;49.436;8.490;2022-10-16T18:06:24;17.00;99.90
14031;DHT22;7090;49.436;8.490;2022-10-16T18:08:50;16.90;99.90
14031;DHT22;7090;49.436;8.490;2022-10-16T18:11:17;16.90;99.90
14031;DHT22;7090;49.436;8.490;2022-10-16T18:13:42;16.90;99.90
14031;DHT22;7090;49.436;8.490;2022-10-16T18:16:13;16.90;99.90
14031;DHT22;7090;49.436;8.490;2022-10-16T18:18:40;16.70;99.90
14031;DHT22;7090;49.436;8.490;2022-10-16T18:21:08;16.50;99.90